sensor_id;sensor_type;location;lat;lon;timestamp;P1;durP1;ratioP1;P2;durP2;ratioP2
73699;SDS011;62005;50.082;8.988;2024-03-22T00:01:46;13.13;;;5.60;;
73699;SDS011;62005;50.082;8.988;2024-03-22T00:04:14;10.60;;;6.15;;
73699;SDS011;62005;50.082;8.988;2024-03-22T00:06:41;11.88;;;6.25;;
73699;SDS011;62005;50.082;8.988;2024-03-22T00:11:33;11.30;;;5.68;;
73699;SDS011;62005;50.082;8.988;2024-03-22T00:13:58;12.43;;;6.00;;
73699;SDS011;62005;50.082;8.988;2024-03-22T00:16:24;10.27;;;5.63;;
73699;SDS011;62005;50.082;8.988;2024-03-22T00:18:49;10.73;;;5.90;;
73699;SDS011;62005;50.082;8.988;2024-03-22T00:21:15;10.25;;;5.90;;
73699;SDS011;62005;50.082;8.988;2024-03-22T00:23:40;11.73;;;5.90;;
73699;SDS011;62005;50.082;8.988;2024-03-22T00:26:07;12.23;;;6.10;;
73699;SDS011;62005;50.082;8.988;2024-03-22T00:28:32;10.60;;;5.07;;
73699;SDS011;62005;50.082;8.988;2024-03-22T00:30:58;10.15;;;5.35;;
73699;SDS011;62005;50.082;8.988;2024-03-22T00:33:23;10.40;;;5.90;;
73699;SDS011;62005;50.082;8.988;2024-03-22T00:35:49;14.00;;;6.25;;
73699;SDS011;62005;50.082;8.988;2024-03-22T00:38:14;9.68;;;5.53;;
73699;SDS011;62005;50.082;8.988;2024-03-22T00:40:40;11.55;;;6.25;;
73699;SDS011;62005;50.082;8.988;2024-03-22T00:43:06;9.90;;;5.55;;
73699;SDS011;62005;50.082;8.988;2024-03-22T00:45:31;13.10;;;6.03;;
73699;SDS011;62005;50.082;8.988;2024-03-22T00:47:57;11.70;;;6.00;;
73699;SDS011;62005;50.082;8.988;2024-03-22T00:50:22;11.45;;;5.68;;
73699;SDS011;62005;50.082;8.988;2024-03-22T00:52:50;10.55;;;5.88;;
73699;SDS011;62005;50.082;8.988;2024-03-22T00:55:16;12.48;;;6.03;;
73699;SDS011;62005;50.082;8.988;2024-03-22T00:57:42;13.82;;;6.75;;
73699;SDS011;62005;50.082;8.988;2024-03-22T01:00:07;12.05;;;6.28;;
73699;SDS011;62005;50.082;8.988;2024-03-22T01:02:33;14.18;;;5.90;;
73699;SDS011;62005;50.082;8.988;2024-03-22T01:04:58;13.77;;;7.25;;
73699;SDS011;62005;50.082;8.988;2024-03-22T01:07:24;12.38;;;7.00;;
73699;SDS011;62005;50.082;8.988;2024-03-22T01:09:49;16.75;;;7.55;;
73699;SDS011;62005;50.082;8.988;2024-03-22T01:12:15;11.05;;;6.38;;
73699;SDS011;62005;50.082;8.988;2024-03-22T01:14:40;13.00;;;6.72;;
73699;SDS011;62005;50.082;8.988;2024-03-22T01:17:06;15.10;;;7.97;;
73699;SDS011;62005;50.082;8.988;2024-03-22T01:19:31;10.93;;;6.05;;
73699;SDS011;62005;50.082;8.988;2024-03-22T01:21:56;14.73;;;6.85;;
73699;SDS011;62005;50.082;8.988;2024-03-22T01:24:22;13.90;;;6.88;;
73699;SDS011;62005;50.082;8.988;2024-03-22T01:26:47;14.85;;;8.32;;
73699;SDS011;62005;50.082;8.988;2024-03-22T01:29:13;11.85;;;6.82;;
73699;SDS011;62005;50.082;8.988;2024-03-22T01:31:39;13.05;;;6.95;;
73699;SDS011;62005;50.082;8.988;2024-03-22T01:34:04;15.32;;;7.22;;
73699;SDS011;62005;50.082;8.988;2024-03-22T01:36:30;11.77;;;6.32;;
73699;SDS011;62005;50.082;8.988;2024-03-22T01:38:55;14.60;;;7.10;;
73699;SDS011;62005;50.082;8.988;2024-03-22T01:41:21;11.25;;;6.57;;
73699;SDS011;62005;50.082;8.988;2024-03-22T01:43:46;14.20;;;6.32;;
73699;SDS011;62005;50.082;8.988;2024-03-22T01:46:12;13.30;;;6.88;;
73699;SDS011;62005;50.082;8.988;2024-03-22T01:48:37;11.65;;;6.15;;
73699;SDS011;62005;50.082;8.988;2024-03-22T01:51:04;11.07;;;5.55;;
73699;SDS011;62005;50.082;8.988;2024-03-22T01:53:30;11.43;;;6.60;;
73699;SDS011;62005;50.082;8.988;2024-03-22T01:55:56;11.02;;;5.65;;
73699;SDS011;62005;50.082;8.988;2024-03-22T01:58:22;11.43;;;5.72;;
73699;SDS011;62005;50.082;8.988;2024-03-22T02:00:47;11.43;;;6.07;;
73699;SDS011;62005;50.082;8.988;2024-03-22T02:03:14;12.48;;;6.22;;
73699;SDS011;62005;50.082;8.988;2024-03-22T02:05:39;10.52;;;6.25;;
73699;SDS011;62005;50.082;8.988;2024-03-22T02:08:05;11.88;;;5.47;;
73699;SDS011;62005;50.082;8.988;2024-03-22T02:10:30;10.73;;;5.15;;
73699;SDS011;62005;50.082;8.988;2024-03-22T02:12:56;9.93;;;5.05;;
73699;SDS011;62005;50.082;8.988;2024-03-22T02:15:22;10.35;;;5.25;;
73699;SDS011;62005;50.082;8.988;2024-03-22T02:17:47;10.73;;;5.10;;
73699;SDS011;62005;50.082;8.988;2024-03-22T02:20:13;13.10;;;6.00;;
73699;SDS011;62005;50.082;8.988;2024-03-22T02:22:38;10.77;;;6.45;;
73699;SDS011;62005;50.082;8.988;2024-03-22T02:25:07;14.75;;;6.10;;
73699;SDS011;62005;50.082;8.988;2024-03-22T02:27:33;12.20;;;5.25;;
73699;SDS011;62005;50.082;8.988;2024-03-22T02:29:59;14.48;;;6.35;;
73699;SDS011;62005;50.082;8.988;2024-03-22T02:32:24;12.68;;;5.75;;
73699;SDS011;62005;50.082;8.988;2024-03-22T02:34:50;11.98;;;6.20;;
73699;SDS011;62005;50.082;8.988;2024-03-22T02:37:15;14.50;;;7.32;;
73699;SDS011;62005;50.082;8.988;2024-03-22T02:39:41;11.52;;;6.05;;
73699;SDS011;62005;50.082;8.988;2024-03-22T02:42:06;10.68;;;6.22;;
73699;SDS011;62005;50.082;8.988;2024-03-22T02:44:32;13.00;;;6.25;;
73699;SDS011;62005;50.082;8.988;2024-03-22T02:46:57;13.80;;;7.00;;
73699;SDS011;62005;50.082;8.988;2024-03-22T02:49:25;12.13;;;6.72;;
73699;SDS011;62005;50.082;8.988;2024-03-22T02:51:51;13.40;;;6.60;;
73699;SDS011;62005;50.082;8.988;2024-03-22T02:54:16;10.88;;;5.40;;
73699;SDS011;62005;50.082;8.988;2024-03-22T02:56:42;11.93;;;5.75;;
73699;SDS011;62005;50.082;8.988;2024-03-22T02:59:07;12.95;;;6.82;;
73699;SDS011;62005;50.082;8.988;2024-03-22T03:01:33;12.77;;;6.13;;
73699;SDS011;62005;50.082;8.988;2024-03-22T03:03:58;12.15;;;6.82;;
73699;SDS011;62005;50.082;8.988;2024-03-22T03:06:23;15.18;;;6.57;;
73699;SDS011;62005;50.082;8.988;2024-03-22T03:08:49;11.57;;;6.10;;
73699;SDS011;62005;50.082;8.988;2024-03-22T03:11:15;12.27;;;6.78;;
73699;SDS011;62005;50.082;8.988;2024-03-22T03:13:40;11.32;;;6.03;;
73699;SDS011;62005;50.082;8.988;2024-03-22T03:16:06;13.60;;;6.05;;
73699;SDS011;62005;50.082;8.988;2024-03-22T03:18:32;12.02;;;6.22;;
73699;SDS011;62005;50.082;8.988;2024-03-22T03:20:57;10.73;;;5.53;;
73699;SDS011;62005;50.082;8.988;2024-03-22T03:23:23;11.65;;;5.85;;
73699;SDS011;62005;50.082;8.988;2024-03-22T03:25:48;12.48;;;6.15;;
73699;SDS011;62005;50.082;8.988;2024-03-22T03:28:14;11.68;;;5.03;;
73699;SDS011;62005;50.082;8.988;2024-03-22T03:30:39;10.75;;;5.53;;
73699;SDS011;62005;50.082;8.988;2024-03-22T03:33:05;12.23;;;5.82;;
73699;SDS011;62005;50.082;8.988;2024-03-22T03:35:30;11.30;;;5.20;;
73699;SDS011;62005;50.082;8.988;2024-03-22T03:37:56;10.15;;;5.97;;
73699;SDS011;62005;50.082;8.988;2024-03-22T03:40:21;11.48;;;6.03;;
73699;SDS011;62005;50.082;8.988;2024-03-22T03:42:49;11.32;;;5.80;;
73699;SDS011;62005;50.082;8.988;2024-03-22T03:45:15;10.20;;;5.82;;
73699;SDS011;62005;50.082;8.988;2024-03-22T03:47:41;8.45;;;5.05;;
73699;SDS011;62005;50.082;8.988;2024-03-22T03:50:06;12.68;;;6.00;;
73699;SDS011;62005;50.082;8.988;2024-03-22T03:52:32;8.52;;;5.03;;
73699;SDS011;62005;50.082;8.988;2024-03-22T03:54:58;10.23;;;5.70;;
73699;SDS011;62005;50.082;8.988;2024-03-22T03:57:23;10.82;;;5.20;;
73699;SDS011;62005;50.082;8.988;2024-03-22T03:59:49;11.13;;;5.05;;
73699;SDS011;62005;50.082;8.988;2024-03-22T04:02:14;10.38;;;4.75;;
73699;SDS011;62005;50.082;8.988;2024-03-22T04:04:40;14.02;;;5.70;;
73699;SDS011;62005;50.082;8.988;2024-03-22T04:07:05;11.48;;;5.28;;
73699;SDS011;62005;50.082;8.988;2024-03-22T04:09:31;12.90;;;6.20;;
73699;SDS011;62005;50.082;8.988;2024-03-22T04:11:57;10.27;;;5.28;;
73699;SDS011;62005;50.082;8.988;2024-03-22T04:14:24;8.35;;;4.53;;
73699;SDS011;62005;50.082;8.988;2024-03-22T04:16:50;12.07;;;6.00;;
73699;SDS011;62005;50.082;8.988;2024-03-22T04:19:15;11.38;;;5.65;;
73699;SDS011;62005;50.082;8.988;2024-03-22T04:21:41;14.27;;;6.07;;
73699;SDS011;62005;50.082;8.988;2024-03-22T04:24:06;11.52;;;6.53;;
73699;SDS011;62005;50.082;8.988;2024-03-22T04:26:32;10.65;;;6.05;;
73699;SDS011;62005;50.082;8.988;2024-03-22T04:28:57;10.88;;;5.32;;
73699;SDS011;62005;50.082;8.988;2024-03-22T04:31:23;10.57;;;5.75;;
73699;SDS011;62005;50.082;8.988;2024-03-22T04:33:48;10.23;;;5.07;;
73699;SDS011;62005;50.082;8.988;2024-03-22T04:36:14;9.60;;;5.03;;
73699;SDS011;62005;50.082;8.988;2024-03-22T04:38:40;10.75;;;5.82;;
73699;SDS011;62005;50.082;8.988;2024-03-22T04:41:06;10.02;;;5.20;;
73699;SDS011;62005;50.082;8.988;2024-03-22T04:43:31;9.95;;;5.15;;
73699;SDS011;62005;50.082;8.988;2024-03-22T04:45:57;11.00;;;5.43;;
73699;SDS011;62005;50.082;8.988;2024-03-22T04:48:23;10.98;;;5.40;;
73699;SDS011;62005;50.082;8.988;2024-03-22T04:50:52;12.50;;;6.03;;
73699;SDS011;62005;50.082;8.988;2024-03-22T04:53:18;11.20;;;6.20;;
73699;SDS011;62005;50.082;8.988;2024-03-22T04:55:47;12.20;;;5.90;;
73699;SDS011;62005;50.082;8.988;2024-03-22T04:58:14;12.27;;;6.43;;
73699;SDS011;62005;50.082;8.988;2024-03-22T05:00:41;12.23;;;5.82;;
73699;SDS011;62005;50.082;8.988;2024-03-22T05:03:07;9.43;;;4.68;;
73699;SDS011;62005;50.082;8.988;2024-03-22T05:05:33;10.50;;;5.32;;
73699;SDS011;62005;50.082;8.988;2024-03-22T05:08:00;10.32;;;5.35;;
73699;SDS011;62005;50.082;8.988;2024-03-22T05:10:25;13.38;;;6.22;;
73699;SDS011;62005;50.082;8.988;2024-03-22T05:12:51;11.95;;;6.57;;
73699;SDS011;62005;50.082;8.988;2024-03-22T05:15:16;11.85;;;5.93;;
73699;SDS011;62005;50.082;8.988;2024-03-22T05:17:42;11.75;;;5.82;;
73699;SDS011;62005;50.082;8.988;2024-03-22T05:20:08;12.40;;;5.90;;
73699;SDS011;62005;50.082;8.988;2024-03-22T05:22:36;10.88;;;5.55;;
73699;SDS011;62005;50.082;8.988;2024-03-22T05:25:02;12.32;;;7.00;;
73699;SDS011;62005;50.082;8.988;2024-03-22T05:27:28;10.52;;;6.05;;
73699;SDS011;62005;50.082;8.988;2024-03-22T05:29:55;12.90;;;6.28;;
73699;SDS011;62005;50.082;8.988;2024-03-22T05:32:21;12.52;;;6.75;;
73699;SDS011;62005;50.082;8.988;2024-03-22T05:34:46;13.07;;;6.18;;
73699;SDS011;62005;50.082;8.988;2024-03-22T05:37:12;10.82;;;5.25;;
73699;SDS011;62005;50.082;8.988;2024-03-22T05:39:37;11.15;;;6.05;;
73699;SDS011;62005;50.082;8.988;2024-03-22T05:42:04;10.52;;;6.15;;
73699;SDS011;62005;50.082;8.988;2024-03-22T05:44:30;12.82;;;6.32;;
73699;SDS011;62005;50.082;8.988;2024-03-22T05:46:55;10.73;;;5.75;;
73699;SDS011;62005;50.082;8.988;2024-03-22T05:49:21;11.00;;;5.70;;
73699;SDS011;62005;50.082;8.988;2024-03-22T05:51:46;9.90;;;5.55;;
73699;SDS011;62005;50.082;8.988;2024-03-22T05:54:12;12.25;;;6.30;;
73699;SDS011;62005;50.082;8.988;2024-03-22T05:56:37;10.73;;;6.25;;
73699;SDS011;62005;50.082;8.988;2024-03-22T05:59:03;13.82;;;5.63;;
73699;SDS011;62005;50.082;8.988;2024-03-22T06:01:28;12.88;;;5.97;;
73699;SDS011;62005;50.082;8.988;2024-03-22T06:03:54;13.10;;;6.13;;
73699;SDS011;62005;50.082;8.988;2024-03-22T06:06:19;12.05;;;5.32;;
73699;SDS011;62005;50.082;8.988;2024-03-22T06:08:50;12.60;;;6.20;;
73699;SDS011;62005;50.082;8.988;2024-03-22T06:11:17;13.40;;;5.72;;
73699;SDS011;62005;50.082;8.988;2024-03-22T06:13:43;12.20;;;6.55;;
73699;SDS011;62005;50.082;8.988;2024-03-22T06:16:09;12.15;;;6.82;;
73699;SDS011;62005;50.082;8.988;2024-03-22T06:18:34;11.20;;;6.65;;
73699;SDS011;62005;50.082;8.988;2024-03-22T06:21:00;12.88;;;6.22;;
73699;SDS011;62005;50.082;8.988;2024-03-22T06:23:25;11.93;;;5.97;;
73699;SDS011;62005;50.082;8.988;2024-03-22T06:25:54;14.93;;;6.30;;
73699;SDS011;62005;50.082;8.988;2024-03-22T06:28:21;11.23;;;5.75;;
73699;SDS011;62005;50.082;8.988;2024-03-22T06:30:47;11.25;;;5.68;;
73699;SDS011;62005;50.082;8.988;2024-03-22T06:33:13;13.65;;;5.85;;
73699;SDS011;62005;50.082;8.988;2024-03-22T06:35:38;12.65;;;6.30;;
73699;SDS011;62005;50.082;8.988;2024-03-22T06:38:04;14.05;;;5.53;;
73699;SDS011;62005;50.082;8.988;2024-03-22T06:40:30;14.10;;;6.60;;
73699;SDS011;62005;50.082;8.988;2024-03-22T06:42:56;11.65;;;6.30;;
73699;SDS011;62005;50.082;8.988;2024-03-22T06:45:21;12.82;;;6.10;;
73699;SDS011;62005;50.082;8.988;2024-03-22T06:47:47;12.15;;;5.68;;
73699;SDS011;62005;50.082;8.988;2024-03-22T06:50:13;12.30;;;6.13;;
73699;SDS011;62005;50.082;8.988;2024-03-22T06:52:38;12.02;;;6.25;;
73699;SDS011;62005;50.082;8.988;2024-03-22T06:55:04;12.07;;;5.97;;
73699;SDS011;62005;50.082;8.988;2024-03-22T06:57:30;13.05;;;6.40;;
73699;SDS011;62005;50.082;8.988;2024-03-22T06:59:56;13.32;;;6.05;;
73699;SDS011;62005;50.082;8.988;2024-03-22T07:02:21;15.10;;;6.28;;
73699;SDS011;62005;50.082;8.988;2024-03-22T07:04:47;11.85;;;6.97;;
73699;SDS011;62005;50.082;8.988;2024-03-22T07:07:12;12.48;;;6.22;;
73699;SDS011;62005;50.082;8.988;2024-03-22T07:09:38;12.20;;;5.68;;
73699;SDS011;62005;50.082;8.988;2024-03-22T07:12:04;11.43;;;5.78;;
73699;SDS011;62005;50.082;8.988;2024-03-22T07:14:30;12.82;;;5.80;;
73699;SDS011;62005;50.082;8.988;2024-03-22T07:16:55;11.70;;;5.78;;
73699;SDS011;62005;50.082;8.988;2024-03-22T07:19:21;18.23;;;5.88;;
73699;SDS011;62005;50.082;8.988;2024-03-22T07:21:47;14.45;;;6.47;;
73699;SDS011;62005;50.082;8.988;2024-03-22T07:24:13;11.57;;;5.97;;
73699;SDS011;62005;50.082;8.988;2024-03-22T07:26:38;14.27;;;6.35;;
73699;SDS011;62005;50.082;8.988;2024-03-22T07:29:04;13.20;;;5.85;;
73699;SDS011;62005;50.082;8.988;2024-03-22T07:31:29;11.85;;;5.47;;
73699;SDS011;62005;50.082;8.988;2024-03-22T07:33:55;15.73;;;6.07;;
73699;SDS011;62005;50.082;8.988;2024-03-22T07:36:21;11.48;;;6.15;;
73699;SDS011;62005;50.082;8.988;2024-03-22T07:38:46;12.90;;;5.97;;
73699;SDS011;62005;50.082;8.988;2024-03-22T07:41:14;15.38;;;6.30;;
73699;SDS011;62005;50.082;8.988;2024-03-22T07:43:39;12.57;;;6.00;;
73699;SDS011;62005;50.082;8.988;2024-03-22T07:46:05;13.18;;;6.35;;
73699;SDS011;62005;50.082;8.988;2024-03-22T07:48:30;12.43;;;6.18;;
73699;SDS011;62005;50.082;8.988;2024-03-22T07:50:59;10.57;;;5.47;;
73699;SDS011;62005;50.082;8.988;2024-03-22T07:53:25;11.63;;;5.97;;
73699;SDS011;62005;50.082;8.988;2024-03-22T07:55:51;11.40;;;5.72;;
73699;SDS011;62005;50.082;8.988;2024-03-22T07:58:17;14.18;;;5.78;;
73699;SDS011;62005;50.082;8.988;2024-03-22T08:00:42;11.43;;;5.50;;
73699;SDS011;62005;50.082;8.988;2024-03-22T08:03:09;11.73;;;5.75;;
73699;SDS011;62005;50.082;8.988;2024-03-22T08:05:40;15.00;;;6.22;;
73699;SDS011;62005;50.082;8.988;2024-03-22T08:08:06;11.48;;;5.75;;
73699;SDS011;62005;50.082;8.988;2024-03-22T08:10:31;11.85;;;5.55;;
73699;SDS011;62005;50.082;8.988;2024-03-22T08:12:57;12.20;;;5.35;;
73699;SDS011;62005;50.082;8.988;2024-03-22T08:15:22;16.25;;;6.65;;
73699;SDS011;62005;50.082;8.988;2024-03-22T08:17:48;12.93;;;6.10;;
73699;SDS011;62005;50.082;8.988;2024-03-22T08:20:13;10.23;;;5.22;;
73699;SDS011;62005;50.082;8.988;2024-03-22T08:22:39;12.15;;;5.78;;
73699;SDS011;62005;50.082;8.988;2024-03-22T08:27:33;13.55;;;6.07;;
73699;SDS011;62005;50.082;8.988;2024-03-22T08:29:59;10.85;;;4.78;;
73699;SDS011;62005;50.082;8.988;2024-03-22T08:32:25;14.13;;;5.80;;
73699;SDS011;62005;50.082;8.988;2024-03-22T08:34:50;13.57;;;5.80;;
73699;SDS011;62005;50.082;8.988;2024-03-22T08:37:16;13.07;;;5.43;;
73699;SDS011;62005;50.082;8.988;2024-03-22T08:39:41;10.43;;;5.22;;
73699;SDS011;62005;50.082;8.988;2024-03-22T08:42:07;16.77;;;6.18;;
73699;SDS011;62005;50.082;8.988;2024-03-22T08:46:59;12.90;;;5.07;;
73699;SDS011;62005;50.082;8.988;2024-03-22T08:49:25;11.77;;;5.75;;
73699;SDS011;62005;50.082;8.988;2024-03-22T08:51:50;11.88;;;5.65;;
73699;SDS011;62005;50.082;8.988;2024-03-22T08:54:15;15.80;;;6.30;;
73699;SDS011;62005;50.082;8.988;2024-03-22T08:56:41;12.75;;;5.35;;
73699;SDS011;62005;50.082;8.988;2024-03-22T08:59:06;12.05;;;5.75;;
73699;SDS011;62005;50.082;8.988;2024-03-22T09:01:32;12.63;;;5.80;;
73699;SDS011;62005;50.082;8.988;2024-03-22T09:03:58;13.23;;;5.68;;
73699;SDS011;62005;50.082;8.988;2024-03-22T09:06:23;13.80;;;6.50;;
73699;SDS011;62005;50.082;8.988;2024-03-22T09:08:49;13.48;;;5.85;;
73699;SDS011;62005;50.082;8.988;2024-03-22T09:11:14;13.32;;;6.15;;
73699;SDS011;62005;50.082;8.988;2024-03-22T09:13:40;12.82;;;6.30;;
73699;SDS011;62005;50.082;8.988;2024-03-22T09:16:05;12.32;;;6.18;;
73699;SDS011;62005;50.082;8.988;2024-03-22T09:18:31;12.23;;;5.90;;
73699;SDS011;62005;50.082;8.988;2024-03-22T09:20:56;14.75;;;7.18;;
73699;SDS011;62005;50.082;8.988;2024-03-22T09:23:22;14.32;;;6.22;;
73699;SDS011;62005;50.082;8.988;2024-03-22T09:25:48;11.25;;;5.53;;
73699;SDS011;62005;50.082;8.988;2024-03-22T09:28:13;14.88;;;5.72;;
73699;SDS011;62005;50.082;8.988;2024-03-22T09:30:39;13.45;;;6.80;;
73699;SDS011;62005;50.082;8.988;2024-03-22T09:33:05;12.30;;;5.28;;
73699;SDS011;62005;50.082;8.988;2024-03-22T09:35:33;13.45;;;6.10;;
73699;SDS011;62005;50.082;8.988;2024-03-22T09:37:59;15.85;;;6.10;;
73699;SDS011;62005;50.082;8.988;2024-03-22T09:40:24;16.17;;;5.57;;
73699;SDS011;62005;50.082;8.988;2024-03-22T09:42:50;16.05;;;6.15;;
73699;SDS011;62005;50.082;8.988;2024-03-22T09:45:18;12.10;;;5.80;;
73699;SDS011;62005;50.082;8.988;2024-03-22T09:47:45;16.23;;;6.18;;
73699;SDS011;62005;50.082;8.988;2024-03-22T09:50:12;14.38;;;5.53;;
73699;SDS011;62005;50.082;8.988;2024-03-22T09:52:38;12.85;;;5.18;;
73699;SDS011;62005;50.082;8.988;2024-03-22T09:55:05;9.50;;;5.00;;
73699;SDS011;62005;50.082;8.988;2024-03-22T09:57:31;15.80;;;5.55;;
73699;SDS011;62005;50.082;8.988;2024-03-22T09:59:59;13.23;;;5.25;;
73699;SDS011;62005;50.082;8.988;2024-03-22T10:02:25;10.15;;;4.90;;
73699;SDS011;62005;50.082;8.988;2024-03-22T10:04:51;12.32;;;5.68;;
73699;SDS011;62005;50.082;8.988;2024-03-22T10:07:17;14.25;;;5.90;;
73699;SDS011;62005;50.082;8.988;2024-03-22T10:09:43;10.27;;;4.72;;
73699;SDS011;62005;50.082;8.988;2024-03-22T10:12:09;11.80;;;4.88;;
73699;SDS011;62005;50.082;8.988;2024-03-22T10:14:34;12.13;;;4.75;;
73699;SDS011;62005;50.082;8.988;2024-03-22T10:17:02;10.82;;;4.55;;
73699;SDS011;62005;50.082;8.988;2024-03-22T10:19:28;7.40;;;3.47;;
73699;SDS011;62005;50.082;8.988;2024-03-22T10:22:00;8.23;;;3.85;;
73699;SDS011;62005;50.082;8.988;2024-03-22T10:24:27;9.38;;;3.70;;
73699;SDS011;62005;50.082;8.988;2024-03-22T10:26:53;8.20;;;3.50;;
73699;SDS011;62005;50.082;8.988;2024-03-22T10:29:19;9.43;;;4.07;;
73699;SDS011;62005;50.082;8.988;2024-03-22T10:31:47;9.30;;;4.03;;
73699;SDS011;62005;50.082;8.988;2024-03-22T10:34:13;8.93;;;3.47;;
73699;SDS011;62005;50.082;8.988;2024-03-22T10:36:39;9.80;;;3.35;;
73699;SDS011;62005;50.082;8.988;2024-03-22T10:39:05;9.68;;;3.70;;
73699;SDS011;62005;50.082;8.988;2024-03-22T10:41:31;8.65;;;4.20;;
73699;SDS011;62005;50.082;8.988;2024-03-22T10:43:57;7.15;;;2.78;;
73699;SDS011;62005;50.082;8.988;2024-03-22T10:46:23;8.48;;;3.38;;
73699;SDS011;62005;50.082;8.988;2024-03-22T10:48:55;9.15;;;3.10;;
73699;SDS011;62005;50.082;8.988;2024-03-22T10:51:20;6.00;;;3.33;;
73699;SDS011;62005;50.082;8.988;2024-03-22T10:53:48;6.95;;;2.92;;
73699;SDS011;62005;50.082;8.988;2024-03-22T10:56:15;6.25;;;3.20;;
73699;SDS011;62005;50.082;8.988;2024-03-22T10:58:42;10.43;;;2.90;;
73699;SDS011;62005;50.082;8.988;2024-03-22T11:01:21;10.48;;;3.22;;
73699;SDS011;62005;50.082;8.988;2024-03-22T11:03:50;6.38;;;2.53;;
73699;SDS011;62005;50.082;8.988;2024-03-22T11:06:19;3.15;;;1.55;;
73699;SDS011;62005;50.082;8.988;2024-03-22T11:08:51;3.65;;;1.50;;
73699;SDS011;62005;50.082;8.988;2024-03-22T11:11:17;3.63;;;1.27;;
73699;SDS011;62005;50.082;8.988;2024-03-22T11:13:46;2.47;;;1.25;;
73699;SDS011;62005;50.082;8.988;2024-03-22T11:16:15;2.90;;;1.20;;
73699;SDS011;62005;50.082;8.988;2024-03-22T11:18:43;3.90;;;1.55;;
73699;SDS011;62005;50.082;8.988;2024-03-22T11:21:08;5.07;;;2.03;;
73699;SDS011;62005;50.082;8.988;2024-03-22T11:23:37;4.72;;;1.73;;
73699;SDS011;62005;50.082;8.988;2024-03-22T11:26:03;4.65;;;2.08;;
73699;SDS011;62005;50.082;8.988;2024-03-22T11:28:29;6.22;;;1.38;;
73699;SDS011;62005;50.082;8.988;2024-03-22T11:30:55;4.60;;;1.80;;
73699;SDS011;62005;50.082;8.988;2024-03-22T11:33:21;4.18;;;1.75;;
73699;SDS011;62005;50.082;8.988;2024-03-22T11:35:47;5.15;;;2.00;;
73699;SDS011;62005;50.082;8.988;2024-03-22T11:38:14;5.97;;;2.38;;
73699;SDS011;62005;50.082;8.988;2024-03-22T11:40:41;8.88;;;2.20;;
73699;SDS011;62005;50.082;8.988;2024-03-22T11:43:08;6.47;;;2.40;;
73699;SDS011;62005;50.082;8.988;2024-03-22T11:45:35;4.93;;;2.38;;
73699;SDS011;62005;50.082;8.988;2024-03-22T11:48:02;5.40;;;2.33;;
73699;SDS011;62005;50.082;8.988;2024-03-22T11:50:28;6.95;;;2.42;;
73699;SDS011;62005;50.082;8.988;2024-03-22T11:52:54;4.85;;;2.42;;
73699;SDS011;62005;50.082;8.988;2024-03-22T11:55:21;5.78;;;2.53;;
73699;SDS011;62005;50.082;8.988;2024-03-22T11:57:49;5.78;;;2.35;;
73699;SDS011;62005;50.082;8.988;2024-03-22T12:00:15;8.73;;;3.15;;
73699;SDS011;62005;50.082;8.988;2024-03-22T12:02:42;6.93;;;2.80;;
73699;SDS011;62005;50.082;8.988;2024-03-22T12:05:08;6.88;;;3.45;;
73699;SDS011;62005;50.082;8.988;2024-03-22T12:07:34;6.97;;;3.45;;
73699;SDS011;62005;50.082;8.988;2024-03-22T12:10:00;9.13;;;3.22;;
73699;SDS011;62005;50.082;8.988;2024-03-22T12:12:26;7.45;;;3.13;;
73699;SDS011;62005;50.082;8.988;2024-03-22T12:14:52;6.65;;;3.45;;
73699;SDS011;62005;50.082;8.988;2024-03-22T12:17:17;8.05;;;3.65;;
73699;SDS011;62005;50.082;8.988;2024-03-22T12:19:43;7.95;;;3.47;;
73699;SDS011;62005;50.082;8.988;2024-03-22T12:22:09;7.03;;;3.53;;
73699;SDS011;62005;50.082;8.988;2024-03-22T12:24:35;9.65;;;3.20;;
73699;SDS011;62005;50.082;8.988;2024-03-22T12:27:01;6.53;;;3.17;;
73699;SDS011;62005;50.082;8.988;2024-03-22T12:29:27;6.70;;;3.58;;
73699;SDS011;62005;50.082;8.988;2024-03-22T12:31:52;12.80;;;4.22;;
73699;SDS011;62005;50.082;8.988;2024-03-22T12:34:18;8.15;;;3.45;;
73699;SDS011;62005;50.082;8.988;2024-03-22T12:36:44;7.43;;;3.63;;
73699;SDS011;62005;50.082;8.988;2024-03-22T12:39:09;9.00;;;3.10;;
73699;SDS011;62005;50.082;8.988;2024-03-22T12:41:35;9.55;;;3.85;;
73699;SDS011;62005;50.082;8.988;2024-03-22T12:44:00;9.57;;;4.03;;
73699;SDS011;62005;50.082;8.988;2024-03-22T12:46:26;8.10;;;3.67;;
73699;SDS011;62005;50.082;8.988;2024-03-22T12:48:52;7.63;;;3.70;;
73699;SDS011;62005;50.082;8.988;2024-03-22T12:51:18;8.25;;;3.53;;
73699;SDS011;62005;50.082;8.988;2024-03-22T12:53:44;8.90;;;3.90;;
73699;SDS011;62005;50.082;8.988;2024-03-22T12:56:11;11.55;;;3.80;;
73699;SDS011;62005;50.082;8.988;2024-03-22T12:58:36;9.15;;;4.05;;
73699;SDS011;62005;50.082;8.988;2024-03-22T13:01:02;7.20;;;3.35;;
73699;SDS011;62005;50.082;8.988;2024-03-22T13:03:30;7.65;;;3.30;;
73699;SDS011;62005;50.082;8.988;2024-03-22T13:05:55;7.97;;;3.05;;
73699;SDS011;62005;50.082;8.988;2024-03-22T13:08:21;7.95;;;3.70;;
73699;SDS011;62005;50.082;8.988;2024-03-22T13:10:46;8.20;;;3.15;;
73699;SDS011;62005;50.082;8.988;2024-03-22T13:13:13;7.78;;;3.35;;
73699;SDS011;62005;50.082;8.988;2024-03-22T13:15:41;10.18;;;3.67;;
73699;SDS011;62005;50.082;8.988;2024-03-22T13:18:07;10.25;;;3.47;;
73699;SDS011;62005;50.082;8.988;2024-03-22T13:20:34;9.48;;;3.95;;
73699;SDS011;62005;50.082;8.988;2024-03-22T13:23:00;5.53;;;2.90;;
73699;SDS011;62005;50.082;8.988;2024-03-22T13:25:26;6.03;;;3.53;;
73699;SDS011;62005;50.082;8.988;2024-03-22T13:27:52;9.77;;;3.85;;
73699;SDS011;62005;50.082;8.988;2024-03-22T13:30:17;7.43;;;3.72;;
73699;SDS011;62005;50.082;8.988;2024-03-22T13:32:43;7.50;;;3.78;;
73699;SDS011;62005;50.082;8.988;2024-03-22T13:35:10;7.35;;;3.08;;
73699;SDS011;62005;50.082;8.988;2024-03-22T13:37:35;6.90;;;3.47;;
73699;SDS011;62005;50.082;8.988;2024-03-22T13:40:01;7.18;;;3.70;;
73699;SDS011;62005;50.082;8.988;2024-03-22T13:42:27;9.93;;;3.70;;
73699;SDS011;62005;50.082;8.988;2024-03-22T13:44:52;13.57;;;3.28;;
73699;SDS011;62005;50.082;8.988;2024-03-22T13:47:18;6.47;;;2.97;;
73699;SDS011;62005;50.082;8.988;2024-03-22T13:49:43;8.40;;;3.38;;
73699;SDS011;62005;50.082;8.988;2024-03-22T13:52:10;8.40;;;3.75;;
73699;SDS011;62005;50.082;8.988;2024-03-22T13:54:36;9.23;;;4.13;;
73699;SDS011;62005;50.082;8.988;2024-03-22T13:57:02;6.53;;;3.30;;
73699;SDS011;62005;50.082;8.988;2024-03-22T13:59:28;7.90;;;4.07;;
73699;SDS011;62005;50.082;8.988;2024-03-22T14:01:54;8.98;;;4.95;;
73699;SDS011;62005;50.082;8.988;2024-03-22T14:04:21;8.70;;;4.00;;
73699;SDS011;62005;50.082;8.988;2024-03-22T14:06:51;10.70;;;3.67;;
73699;SDS011;62005;50.082;8.988;2024-03-22T14:09:17;9.43;;;4.25;;
73699;SDS011;62005;50.082;8.988;2024-03-22T14:11:43;7.35;;;3.78;;
73699;SDS011;62005;50.082;8.988;2024-03-22T14:14:09;9.77;;;3.90;;
73699;SDS011;62005;50.082;8.988;2024-03-22T14:16:39;7.57;;;4.05;;
73699;SDS011;62005;50.082;8.988;2024-03-22T14:19:04;6.88;;;3.90;;
73699;SDS011;62005;50.082;8.988;2024-03-22T14:21:30;11.02;;;3.72;;
73699;SDS011;62005;50.082;8.988;2024-03-22T14:23:55;7.30;;;3.55;;
73699;SDS011;62005;50.082;8.988;2024-03-22T14:26:21;8.82;;;3.92;;
73699;SDS011;62005;50.082;8.988;2024-03-22T14:28:48;5.75;;;3.22;;
73699;SDS011;62005;50.082;8.988;2024-03-22T14:31:15;7.82;;;4.13;;
73699;SDS011;62005;50.082;8.988;2024-03-22T14:33:40;6.05;;;3.63;;
73699;SDS011;62005;50.082;8.988;2024-03-22T14:36:07;8.98;;;3.72;;
73699;SDS011;62005;50.082;8.988;2024-03-22T14:38:33;9.25;;;3.78;;